Anaheim, CA

4:01 AM PST on January 30, 2015 (GMT -0800)
Long Beach | Change Station
CLOSE
Current Station
Airport
Location: Long Beach,
Elevation: 39 ft
Nearby Weather Stations

Elev 39 ft 33.81 °N, 118.15 °W | Updated 8 minutes ago

Overcast
Overcast
63 °F
Feels Like 63 °F
N
5
Wind Variable Wind from West

Today
High -- | Low -- °F
--% Chance of Precip.
Yesterday
High -- | Low -- °F
Precip. -- in
6:50 AM 5:20 PM
Waxing Gibbous, 82% visible
Pressure 29.93 in
Visibility 10.0 miles
Clouds Overcast 9000 ft
Dew Point 51 °F
Humidity 65%
Rainfall 0.01 in
Snow Depth Not available.
UV 0 out of 12
Pollen 8.00 out of 12
Air Quality Not available.
Flu Activity Not available.
METAR KLGB 301153Z 26004KT 10SM -RA OVC090 17/11 A2993 RMK AO2 RAB1059 SLP135 P0000 60001 70001 T01720106 10178 20161 58017

More Conditions Fewer Conditions

Pressure 29.93 in
Visibility 10.0 miles
Clouds Overcast 9000 ft
Dew Point 51 °F
Humidity 65%
Rainfall 0.01 in
Snow Depth Not available.
UV 0 out of 12
Pollen 8.00 out of 12
Air Quality Not available.
Flu Activity Not available.
METAR KLGB 301153Z 26004KT 10SM -RA OVC090 17/11 A2993 RMK AO2 RAB1059 SLP135 P0000 60001 70001 T01720106 10178 20161 58017

More Conditions Fewer Conditions

10-Day Weather Forecast

Almanac

Astronomy

Jan. 30, 2015 Rise Set
Actual Time
Civil Twilight
Nautical Twilight
Astronomical Twilight
Moon
Length of Visible Light
Length of Day
Tomorrow will be .
, % of the Moon is Illuminated

Today's Extremes

State Highs State Lows

Community

WunderPhotos

Upload Photos

1,791,738 photos uploaded!

WunderBlogs® & News

Nearby

Air Quality

  Air Quality AQ Index Pollutant
Not available.

Snow Depth

Station Depth Elevation

Earthquake Activity

City Distance Mag. Time & Date
Minimum magnitude displayed is 2.5.

Coastal Water Temperatures

Place Temperature

Nearby Weather Stations